sensor_id;sensor_type;location;lat;lon;timestamp;noise_LAeq;noise_LA_min;noise_LA_max;noise_LA01;noise_LA95
42701;Laerm;28316;49.504;8.526;2022-11-20T00:01:17;36.46;28.67;39.92;;
42701;Laerm;28316;49.504;8.526;2022-11-20T00:03:43;36.62;28.67;39.21;;
42701;Laerm;28316;49.504;8.526;2022-11-20T00:06:13;36.70;28.67;39.21;;
42701;Laerm;28316;49.504;8.526;2022-11-20T00:08:39;36.65;26.91;39.46;;
42701;Laerm;28316;49.504;8.526;2022-11-20T00:11:14;36.66;29.92;39.34;;
42701;Laerm;28316;49.504;8.526;2022-11-20T00:13:41;36.49;23.90;39.34;;
42701;Laerm;28316;49.504;8.526;2022-11-20T00:16:10;36.55;23.90;39.58;;
42701;Laerm;28316;49.504;8.526;2022-11-20T00:18:36;36.45;26.91;39.21;;
42701;Laerm;28316;49.504;8.526;2022-11-20T00:21:10;36.34;26.91;39.34;;
42701;Laerm;28316;49.504;8.526;2022-11-20T00:23:36;36.33;23.90;39.34;;
42701;Laerm;28316;49.504;8.526;2022-11-20T00:26:08;36.34;28.67;39.21;;
42701;Laerm;28316;49.504;8.526;2022-11-20T00:28:34;36.43;28.67;39.34;;
42701;Laerm;28316;49.504;8.526;2022-11-20T00:31:06;36.42;26.91;39.21;;
42701;Laerm;28316;49.504;8.526;2022-11-20T00:33:32;36.51;26.91;39.34;;
42701;Laerm;28316;49.504;8.526;2022-11-20T00:36:06;36.52;26.91;39.46;;
42701;Laerm;28316;49.504;8.526;2022-11-20T00:38:33;36.51;23.90;39.34;;
42701;Laerm;28316;49.504;8.526;2022-11-20T00:41:02;36.58;26.91;39.34;;
42701;Laerm;28316;49.504;8.526;2022-11-20T00:43:28;36.51;26.56;39.46;;
42701;Laerm;28316;49.504;8.526;2022-11-20T00:46:03;36.65;26.91;39.34;;
42701;Laerm;28316;49.504;8.526;2022-11-20T00:48:30;36.64;23.90;39.34;;
42701;Laerm;28316;49.504;8.526;2022-11-20T00:50:56;36.65;23.90;39.46;;
42701;Laerm;28316;49.504;8.526;2022-11-20T00:53:22;36.64;23.90;39.46;;
42701;Laerm;28316;49.504;8.526;2022-11-20T00:56:04;36.61;26.56;39.58;;
42701;Laerm;28316;49.504;8.526;2022-11-20T00:58:36;36.58;29.57;39.46;;
42701;Laerm;28316;49.504;8.526;2022-11-20T01:01:06;36.65;23.90;39.46;;
42701;Laerm;28316;49.504;8.526;2022-11-20T01:03:34;36.66;23.90;39.34;;
42701;Laerm;28316;49.504;8.526;2022-11-20T01:06:07;36.78;26.91;39.70;;
42701;Laerm;28316;49.504;8.526;2022-11-20T01:08:34;36.70;29.92;39.58;;
42701;Laerm;28316;49.504;8.526;2022-11-20T01:11:13;36.67;26.91;39.34;;
42701;Laerm;28316;49.504;8.526;2022-11-20T01:13:40;36.70;28.67;39.21;;
42701;Laerm;28316;49.504;8.526;2022-11-20T01:16:09;36.72;28.67;39.58;;
42701;Laerm;28316;49.504;8.526;2022-11-20T01:18:37;36.72;29.92;39.81;;
42701;Laerm;28316;49.504;8.526;2022-11-20T01:21:07;36.76;26.91;39.34;;
42701;Laerm;28316;49.504;8.526;2022-11-20T01:23:37;36.82;28.67;39.46;;
42701;Laerm;28316;49.504;8.526;2022-11-20T01:26:06;36.80;28.67;39.46;;
42701;Laerm;28316;49.504;8.526;2022-11-20T01:28:33;36.71;29.92;39.70;;
42701;Laerm;28316;49.504;8.526;2022-11-20T01:30:59;36.74;29.92;39.58;;
42701;Laerm;28316;49.504;8.526;2022-11-20T01:33:25;36.75;26.91;39.34;;
42701;Laerm;28316;49.504;8.526;2022-11-20T01:35:52;36.73;26.91;39.34;;
42701;Laerm;28316;49.504;8.526;2022-11-20T01:38:18;36.74;29.92;39.70;;
42701;Laerm;28316;49.504;8.526;2022-11-20T01:40:45;36.64;26.91;39.58;;
42701;Laerm;28316;49.504;8.526;2022-11-20T01:43:20;36.60;29.92;39.34;;
42701;Laerm;28316;49.504;8.526;2022-11-20T01:51:43;36.34;26.91;39.34;;
42701;Laerm;28316;49.504;8.526;2022-11-20T01:54:19;36.41;28.67;39.08;;
42701;Laerm;28316;49.504;8.526;2022-11-20T01:56:48;36.55;26.91;39.34;;
42701;Laerm;28316;49.504;8.526;2022-11-20T01:59:18;36.70;26.56;39.34;;
42701;Laerm;28316;49.504;8.526;2022-11-20T02:01:45;36.74;28.67;39.34;;
42701;Laerm;28316;49.504;8.526;2022-11-20T02:04:12;36.78;26.91;39.46;;
42701;Laerm;28316;49.504;8.526;2022-11-20T02:07:03;36.88;28.67;39.81;;
42701;Laerm;28316;49.504;8.526;2022-11-20T02:09:28;36.80;28.67;39.34;;
42701;Laerm;28316;49.504;8.526;2022-11-20T02:11:54;36.95;26.91;59.40;;
42701;Laerm;28316;49.504;8.526;2022-11-20T02:14:22;36.53;5.00;39.34;;
42701;Laerm;28316;49.504;8.526;2022-11-20T02:16:49;36.49;26.91;39.46;;
42701;Laerm;28316;49.504;8.526;2022-11-20T02:19:29;36.53;29.92;39.58;;
42701;Laerm;28316;49.504;8.526;2022-11-20T02:22:12;36.55;26.91;39.46;;
42701;Laerm;28316;49.504;8.526;2022-11-20T02:24:40;36.62;28.67;39.34;;
42701;Laerm;28316;49.504;8.526;2022-11-20T02:27:15;36.48;26.91;39.21;;
42701;Laerm;28316;49.504;8.526;2022-11-20T02:32:39;36.38;26.91;39.21;;
42701;Laerm;28316;49.504;8.526;2022-11-20T02:37:47;36.23;26.91;39.08;;
42701;Laerm;28316;49.504;8.526;2022-11-20T02:40:14;36.25;28.67;39.34;;
42701;Laerm;28316;49.504;8.526;2022-11-20T02:42:40;36.23;26.56;39.58;;
42701;Laerm;28316;49.504;8.526;2022-11-20T02:45:06;36.21;26.91;39.08;;
42701;Laerm;28316;49.504;8.526;2022-11-20T02:47:32;36.25;28.67;39.34;;
42701;Laerm;28316;49.504;8.526;2022-11-20T02:49:59;36.31;28.67;39.46;;
42701;Laerm;28316;49.504;8.526;2022-11-20T02:52:25;36.32;26.91;39.23;;
42701;Laerm;28316;49.504;8.526;2022-11-20T02:54:50;36.18;26.91;39.34;;
42701;Laerm;28316;49.504;8.526;2022-11-20T02:57:16;36.04;23.90;39.58;;
42701;Laerm;28316;49.504;8.526;2022-11-20T02:59:42;36.03;26.91;39.21;;
42701;Laerm;28316;49.504;8.526;2022-11-20T03:02:08;36.09;26.91;39.58;;
42701;Laerm;28316;49.504;8.526;2022-11-20T03:04:33;36.14;23.90;39.46;;
42701;Laerm;28316;49.504;8.526;2022-11-20T03:06:59;36.11;28.67;39.11;;
42701;Laerm;28316;49.504;8.526;2022-11-20T03:09:25;36.20;26.91;39.46;;
42701;Laerm;28316;49.504;8.526;2022-11-20T03:11:50;36.20;26.91;39.34;;
42701;Laerm;28316;49.504;8.526;2022-11-20T03:14:16;36.25;26.91;39.08;;
42701;Laerm;28316;49.504;8.526;2022-11-20T03:16:42;36.25;28.67;39.46;;
42701;Laerm;28316;49.504;8.526;2022-11-20T03:19:08;36.34;28.32;39.58;;
42701;Laerm;28316;49.504;8.526;2022-11-20T03:21:34;36.35;26.91;39.46;;
42701;Laerm;28316;49.504;8.526;2022-11-20T03:24:01;36.40;23.55;39.21;;
42701;Laerm;28316;49.504;8.526;2022-11-20T03:26:27;36.30;26.91;39.58;;
42701;Laerm;28316;49.504;8.526;2022-11-20T03:28:56;36.31;26.91;39.58;;
42701;Laerm;28316;49.504;8.526;2022-11-20T03:31:29;36.39;28.67;39.21;;
42701;Laerm;28316;49.504;8.526;2022-11-20T03:33:57;36.74;28.67;39.58;;
42701;Laerm;28316;49.504;8.526;2022-11-20T03:36:23;36.68;26.91;39.58;;
42701;Laerm;28316;49.504;8.526;2022-11-20T03:38:49;36.65;28.67;39.58;;
42701;Laerm;28316;49.504;8.526;2022-11-20T03:41:25;36.62;28.67;39.46;;
42701;Laerm;28316;49.504;8.526;2022-11-20T03:43:57;36.65;26.91;39.21;;
42701;Laerm;28316;49.504;8.526;2022-11-20T03:46:25;36.62;26.91;39.58;;
42701;Laerm;28316;49.504;8.526;2022-11-20T03:48:51;36.65;28.67;39.34;;
42701;Laerm;28316;49.504;8.526;2022-11-20T03:51:26;36.77;28.67;39.34;;
42701;Laerm;28316;49.504;8.526;2022-11-20T03:53:55;36.70;28.67;39.34;;
42701;Laerm;28316;49.504;8.526;2022-11-20T03:56:30;36.66;28.67;39.70;;
42701;Laerm;28316;49.504;8.526;2022-11-20T03:58:57;37.14;28.67;64.53;;
42701;Laerm;28316;49.504;8.526;2022-11-20T04:01:31;36.28;26.91;39.34;;
42701;Laerm;28316;49.504;8.526;2022-11-20T04:03:57;36.29;23.90;39.21;;
42701;Laerm;28316;49.504;8.526;2022-11-20T04:06:27;36.38;26.91;39.21;;
42701;Laerm;28316;49.504;8.526;2022-11-20T04:08:57;36.29;26.91;39.81;;
42701;Laerm;28316;49.504;8.526;2022-11-20T04:11:29;36.40;23.90;39.58;;
42701;Laerm;28316;49.504;8.526;2022-11-20T04:14:05;36.42;28.67;39.58;;
42701;Laerm;28316;49.504;8.526;2022-11-20T04:16:35;36.42;26.91;39.58;;
42701;Laerm;28316;49.504;8.526;2022-11-20T04:19:09;36.50;28.32;39.46;;
42701;Laerm;28316;49.504;8.526;2022-11-20T04:21:35;36.46;23.90;39.11;;
42701;Laerm;28316;49.504;8.526;2022-11-20T04:24:01;36.48;23.90;39.46;;
42701;Laerm;28316;49.504;8.526;2022-11-20T04:26:29;36.40;28.67;39.70;;
42701;Laerm;28316;49.504;8.526;2022-11-20T04:28:56;36.36;28.32;39.21;;
42701;Laerm;28316;49.504;8.526;2022-11-20T04:31:26;36.41;23.90;39.46;;
42701;Laerm;28316;49.504;8.526;2022-11-20T04:33:52;36.44;28.67;39.70;;
42701;Laerm;28316;49.504;8.526;2022-11-20T04:36:25;36.52;28.67;39.46;;
42701;Laerm;28316;49.504;8.526;2022-11-20T04:38:59;36.47;5.00;39.46;;
42701;Laerm;28316;49.504;8.526;2022-11-20T04:41:29;36.52;28.67;39.34;;
42701;Laerm;28316;49.504;8.526;2022-11-20T04:43:58;36.54;26.91;39.21;;
42701;Laerm;28316;49.504;8.526;2022-11-20T04:46:31;36.59;26.91;39.58;;
42701;Laerm;28316;49.504;8.526;2022-11-20T04:48:57;36.65;28.67;39.46;;
42701;Laerm;28316;49.504;8.526;2022-11-20T04:51:23;36.67;5.00;39.34;;
42701;Laerm;28316;49.504;8.526;2022-11-20T04:53:49;36.67;28.67;39.70;;
42701;Laerm;28316;49.504;8.526;2022-11-20T04:56:15;36.74;28.67;39.34;;
42701;Laerm;28316;49.504;8.526;2022-11-20T04:58:42;36.82;28.67;39.70;;
42701;Laerm;28316;49.504;8.526;2022-11-20T05:01:22;36.85;26.91;39.46;;
42701;Laerm;28316;49.504;8.526;2022-11-20T05:03:49;37.39;26.91;61.29;;
42701;Laerm;28316;49.504;8.526;2022-11-20T05:06:17;36.73;29.92;39.46;;
42701;Laerm;28316;49.504;8.526;2022-11-20T05:08:43;36.72;28.32;56.88;;
42701;Laerm;28316;49.504;8.526;2022-11-20T05:11:15;36.59;28.67;39.34;;
42701;Laerm;28316;49.504;8.526;2022-11-20T05:13:42;36.60;26.91;39.21;;
42701;Laerm;28316;49.504;8.526;2022-11-20T05:16:23;36.57;28.67;39.46;;
42701;Laerm;28316;49.504;8.526;2022-11-20T05:18:50;36.53;29.92;39.35;;
42701;Laerm;28316;49.504;8.526;2022-11-20T05:21:17;36.57;28.67;39.46;;
42701;Laerm;28316;49.504;8.526;2022-11-20T05:23:44;36.53;26.56;39.81;;
42701;Laerm;28316;49.504;8.526;2022-11-20T05:26:20;36.54;28.67;39.34;;
42701;Laerm;28316;49.504;8.526;2022-11-20T05:28:50;36.60;23.90;40.13;;
42701;Laerm;28316;49.504;8.526;2022-11-20T05:31:20;36.73;5.00;39.58;;
42701;Laerm;28316;49.504;8.526;2022-11-20T05:33:46;36.65;28.67;39.58;;
42701;Laerm;28316;49.504;8.526;2022-11-20T05:36:14;36.54;23.90;39.34;;
42701;Laerm;28316;49.504;8.526;2022-11-20T05:38:41;36.55;28.67;39.21;;
42701;Laerm;28316;49.504;8.526;2022-11-20T05:41:10;36.54;28.67;39.21;;
42701;Laerm;28316;49.504;8.526;2022-11-20T05:43:39;36.89;28.67;39.46;;
42701;Laerm;28316;49.504;8.526;2022-11-20T05:46:07;36.84;28.67;39.34;;
42701;Laerm;28316;49.504;8.526;2022-11-20T05:48:34;36.73;28.32;39.34;;
42701;Laerm;28316;49.504;8.526;2022-11-20T05:51:03;36.79;28.67;39.46;;
42701;Laerm;28316;49.504;8.526;2022-11-20T05:53:29;36.97;28.67;39.81;;
42701;Laerm;28316;49.504;8.526;2022-11-20T05:55:59;36.77;26.91;39.58;;
42701;Laerm;28316;49.504;8.526;2022-11-20T05:58:25;36.66;28.67;39.58;;
42701;Laerm;28316;49.504;8.526;2022-11-20T06:00:52;36.92;28.67;61.54;;
42701;Laerm;28316;49.504;8.526;2022-11-20T06:03:17;36.53;5.00;39.21;;
42701;Laerm;28316;49.504;8.526;2022-11-20T06:05:43;36.57;28.67;39.21;;
42701;Laerm;28316;49.504;8.526;2022-11-20T06:08:09;36.59;23.90;39.58;;
42701;Laerm;28316;49.504;8.526;2022-11-20T06:10:34;36.62;23.90;39.34;;
42701;Laerm;28316;49.504;8.526;2022-11-20T06:13:00;36.68;26.91;39.70;;
42701;Laerm;28316;49.504;8.526;2022-11-20T06:15:26;36.76;28.32;39.46;;
42701;Laerm;28316;49.504;8.526;2022-11-20T06:17:53;36.77;28.67;39.46;;
42701;Laerm;28316;49.504;8.526;2022-11-20T06:20:20;36.86;26.91;39.58;;
42701;Laerm;28316;49.504;8.526;2022-11-20T06:22:46;36.95;5.00;39.58;;
42701;Laerm;28316;49.504;8.526;2022-11-20T06:25:12;37.03;29.92;39.58;;
42701;Laerm;28316;49.504;8.526;2022-11-20T06:27:38;37.14;29.92;39.58;;
42701;Laerm;28316;49.504;8.526;2022-11-20T06:30:04;37.15;28.67;39.70;;
42701;Laerm;28316;49.504;8.526;2022-11-20T06:32:30;37.14;28.67;39.58;;
42701;Laerm;28316;49.504;8.526;2022-11-20T06:34:56;37.25;29.92;39.70;;
42701;Laerm;28316;49.504;8.526;2022-11-20T06:37:22;37.30;29.92;39.70;;
42701;Laerm;28316;49.504;8.526;2022-11-20T06:39:48;37.34;29.92;39.70;;
42701;Laerm;28316;49.504;8.526;2022-11-20T06:42:14;37.37;29.92;39.68;;
42701;Laerm;28316;49.504;8.526;2022-11-20T06:44:39;37.41;23.90;39.70;;
42701;Laerm;28316;49.504;8.526;2022-11-20T06:47:05;37.53;31.68;39.58;;
42701;Laerm;28316;49.504;8.526;2022-11-20T06:49:31;37.50;30.89;39.58;;
42701;Laerm;28316;49.504;8.526;2022-11-20T06:51:57;37.19;29.92;39.58;;
42701;Laerm;28316;49.504;8.526;2022-11-20T06:54:22;37.36;28.67;39.46;;
42701;Laerm;28316;49.504;8.526;2022-11-20T06:56:48;37.26;28.67;39.70;;
42701;Laerm;28316;49.504;8.526;2022-11-20T06:59:14;37.35;29.92;39.81;;
42701;Laerm;28316;49.504;8.526;2022-11-20T07:01:39;37.37;28.67;39.46;;
42701;Laerm;28316;49.504;8.526;2022-11-20T07:04:05;37.34;31.68;39.46;;
42701;Laerm;28316;49.504;8.526;2022-11-20T07:06:31;37.34;28.67;39.58;;
42701;Laerm;28316;49.504;8.526;2022-11-20T07:08:57;37.39;29.92;39.46;;
42701;Laerm;28316;49.504;8.526;2022-11-20T07:11:23;37.44;30.89;39.81;;
42701;Laerm;28316;49.504;8.526;2022-11-20T07:13:49;37.44;28.67;39.46;;
42701;Laerm;28316;49.504;8.526;2022-11-20T07:16:15;37.43;30.89;39.81;;
42701;Laerm;28316;49.504;8.526;2022-11-20T07:18:40;37.47;28.67;39.70;;
42701;Laerm;28316;49.504;8.526;2022-11-20T07:21:09;37.47;29.92;39.81;;
42701;Laerm;28316;49.504;8.526;2022-11-20T07:23:36;37.52;28.67;39.92;;
42701;Laerm;28316;49.504;8.526;2022-11-20T07:26:08;37.54;29.92;39.58;;
42701;Laerm;28316;49.504;8.526;2022-11-20T07:28:34;37.62;30.89;39.81;;
42701;Laerm;28316;49.504;8.526;2022-11-20T07:31:00;37.61;30.89;39.58;;
42701;Laerm;28316;49.504;8.526;2022-11-20T07:33:26;37.61;28.67;39.70;;
42701;Laerm;28316;49.504;8.526;2022-11-20T07:35:52;37.60;32.35;39.58;;
42701;Laerm;28316;49.504;8.526;2022-11-20T07:38:18;37.60;31.68;39.58;;
42701;Laerm;28316;49.504;8.526;2022-11-20T07:40:43;37.57;30.89;39.81;;
42701;Laerm;28316;49.504;8.526;2022-11-20T07:43:09;37.56;29.92;39.58;;
42701;Laerm;28316;49.504;8.526;2022-11-20T07:45:36;37.67;30.89;39.70;;
42701;Laerm;28316;49.504;8.526;2022-11-20T07:48:02;37.70;31.68;39.70;;
42701;Laerm;28316;49.504;8.526;2022-11-20T07:50:27;37.67;32.35;39.70;;
42701;Laerm;28316;49.504;8.526;2022-11-20T07:53:04;37.65;29.92;39.70;;
42701;Laerm;28316;49.504;8.526;2022-11-20T07:55:30;37.72;32.93;39.92;;
42701;Laerm;28316;49.504;8.526;2022-11-20T07:57:56;37.76;30.89;40.03;;
42701;Laerm;28316;49.504;8.526;2022-11-20T08:00:23;37.77;30.89;40.03;;
42701;Laerm;28316;49.504;8.526;2022-11-20T08:02:49;37.82;29.92;39.81;;
42701;Laerm;28316;49.504;8.526;2022-11-20T08:05:15;37.79;32.35;39.81;;
42701;Laerm;28316;49.504;8.526;2022-11-20T08:07:43;37.85;32.35;39.70;;
42701;Laerm;28316;49.504;8.526;2022-11-20T08:10:11;37.91;32.35;40.03;;
42701;Laerm;28316;49.504;8.526;2022-11-20T08:12:52;37.92;32.35;39.92;;
42701;Laerm;28316;49.504;8.526;2022-11-20T08:15:39;37.91;31.68;39.70;;
42701;Laerm;28316;49.504;8.526;2022-11-20T08:18:09;37.87;30.89;39.81;;
42701;Laerm;28316;49.504;8.526;2022-11-20T08:20:36;37.80;32.35;39.92;;
42701;Laerm;28316;49.504;8.526;2022-11-20T08:23:05;37.67;31.68;39.81;;
42701;Laerm;28316;49.504;8.526;2022-11-20T08:25:32;37.56;29.92;39.70;;
42701;Laerm;28316;49.504;8.526;2022-11-20T08:28:00;37.49;28.67;39.81;;
42701;Laerm;28316;49.504;8.526;2022-11-20T08:30:26;37.40;30.89;39.46;;
42701;Laerm;28316;49.504;8.526;2022-11-20T08:32:53;37.19;30.89;39.58;;
42701;Laerm;28316;49.504;8.526;2022-11-20T08:35:20;36.99;29.92;39.58;;
42701;Laerm;28316;49.504;8.526;2022-11-20T08:37:47;36.73;28.67;39.46;;
42701;Laerm;28316;49.504;8.526;2022-11-20T08:40:14;36.60;23.90;39.34;;
42701;Laerm;28316;49.504;8.526;2022-11-20T08:42:50;36.35;26.91;39.34;;
42701;Laerm;28316;49.504;8.526;2022-11-20T08:45:17;36.09;23.90;38.81;;
42701;Laerm;28316;49.504;8.526;2022-11-20T08:47:44;35.93;26.91;38.95;;
42701;Laerm;28316;49.504;8.526;2022-11-20T08:50:13;35.82;26.91;38.95;;
42701;Laerm;28316;49.504;8.526;2022-11-20T08:52:39;35.78;28.67;39.08;;
42701;Laerm;28316;49.504;8.526;2022-11-20T08:55:06;35.77;23.90;39.58;;
42701;Laerm;28316;49.504;8.526;2022-11-20T08:57:36;35.70;26.56;39.57;;
42701;Laerm;28316;49.504;8.526;2022-11-20T09:00:05;35.69;5.00;39.21;;
42701;Laerm;28316;49.504;8.526;2022-11-20T09:02:31;35.64;23.90;39.08;;
42701;Laerm;28316;49.504;8.526;2022-11-20T09:04:58;35.60;23.90;38.81;;
42701;Laerm;28316;49.504;8.526;2022-11-20T09:07:24;35.64;23.90;39.21;;
42701;Laerm;28316;49.504;8.526;2022-11-20T09:09:49;35.61;23.90;39.08;;
42701;Laerm;28316;49.504;8.526;2022-11-20T09:12:15;35.62;26.91;38.95;;
42701;Laerm;28316;49.504;8.526;2022-11-20T09:14:41;35.65;23.90;39.34;;
42701;Laerm;28316;49.504;8.526;2022-11-20T09:17:07;35.60;23.90;39.11;;
42701;Laerm;28316;49.504;8.526;2022-11-20T09:19:33;35.68;26.91;39.70;;
42701;Laerm;28316;49.504;8.526;2022-11-20T09:21:59;35.63;26.91;39.21;;
42701;Laerm;28316;49.504;8.526;2022-11-20T09:24:26;35.63;26.91;39.34;;
42701;Laerm;28316;49.504;8.526;2022-11-20T09:26:52;35.65;23.90;39.08;;
42701;Laerm;28316;49.504;8.526;2022-11-20T09:29:17;35.65;23.90;39.21;;
42701;Laerm;28316;49.504;8.526;2022-11-20T09:31:43;35.66;26.91;39.34;;
42701;Laerm;28316;49.504;8.526;2022-11-20T09:34:09;35.60;23.90;39.21;;
42701;Laerm;28316;49.504;8.526;2022-11-20T09:36:35;35.58;23.55;39.81;;
42701;Laerm;28316;49.504;8.526;2022-11-20T09:39:01;35.60;23.90;38.81;;
42701;Laerm;28316;49.504;8.526;2022-11-20T09:53:21;35.61;5.00;39.46;;
42701;Laerm;28316;49.504;8.526;2022-11-20T09:55:48;35.64;23.90;39.08;;
42701;Laerm;28316;49.504;8.526;2022-11-20T09:58:49;35.64;23.90;38.95;;
42701;Laerm;28316;49.504;8.526;2022-11-20T10:01:19;35.63;5.00;39.21;;
42701;Laerm;28316;49.504;8.526;2022-11-20T10:04:10;35.57;23.90;38.81;;
42701;Laerm;28316;49.504;8.526;2022-11-20T10:07:13;35.61;23.90;39.08;;
42701;Laerm;28316;49.504;8.526;2022-11-20T10:09:53;35.56;23.90;38.95;;
42701;Laerm;28316;49.504;8.526;2022-11-20T10:15:10;35.56;5.00;39.21;;
42701;Laerm;28316;49.504;8.526;2022-11-20T10:18:02;35.57;26.91;39.34;;
42701;Laerm;28316;49.504;8.526;2022-11-20T10:26:06;35.84;23.90;39.21;;
42701;Laerm;28316;49.504;8.526;2022-11-20T10:31:38;36.26;23.90;39.08;;
42701;Laerm;28316;49.504;8.526;2022-11-20T10:34:28;36.16;26.91;39.23;;
42701;Laerm;28316;49.504;8.526;2022-11-20T10:37:06;36.22;28.67;39.58;;
42701;Laerm;28316;49.504;8.526;2022-11-20T10:46:03;36.41;28.67;39.46;;
42701;Laerm;28316;49.504;8.526;2022-11-20T10:48:32;36.45;26.91;39.21;;
42701;Laerm;28316;49.504;8.526;2022-11-20T10:56:51;36.72;26.91;39.46;;
42701;Laerm;28316;49.504;8.526;2022-11-20T10:59:37;36.60;26.56;39.34;;
42701;Laerm;28316;49.504;8.526;2022-11-20T11:02:31;36.56;26.91;39.46;;
42701;Laerm;28316;49.504;8.526;2022-11-20T11:05:51;36.54;26.91;39.58;;
42701;Laerm;28316;49.504;8.526;2022-11-20T11:07:58;36.62;28.67;39.21;;
42701;Laerm;28316;49.504;8.526;2022-11-20T11:10:50;36.64;26.91;39.58;;
42701;Laerm;28316;49.504;8.526;2022-11-20T11:13:28;36.70;26.91;39.92;;
42701;Laerm;28316;49.504;8.526;2022-11-20T11:15:56;36.58;28.67;39.35;;
42701;Laerm;28316;49.504;8.526;2022-11-20T11:18:29;36.83;28.67;39.46;;
42701;Laerm;28316;49.504;8.526;2022-11-20T11:20:59;36.88;28.67;39.46;;
42701;Laerm;28316;49.504;8.526;2022-11-20T11:23:32;36.87;28.67;39.46;;
42701;Laerm;28316;49.504;8.526;2022-11-20T11:26:01;36.97;23.90;39.81;;
42701;Laerm;28316;49.504;8.526;2022-11-20T11:28:28;36.91;29.92;39.46;;
42701;Laerm;28316;49.504;8.526;2022-11-20T11:30:54;36.93;26.91;39.46;;
42701;Laerm;28316;49.504;8.526;2022-11-20T11:33:31;36.26;26.91;39.58;;
42701;Laerm;28316;49.504;8.526;2022-11-20T11:36:05;36.03;23.90;40.89;;
42701;Laerm;28316;49.504;8.526;2022-11-20T11:38:42;35.72;26.91;39.21;;
42701;Laerm;28316;49.504;8.526;2022-11-20T11:41:23;35.64;26.91;38.95;;
42701;Laerm;28316;49.504;8.526;2022-11-20T11:43:56;35.57;23.90;38.81;;
42701;Laerm;28316;49.504;8.526;2022-11-20T11:46:55;35.55;23.90;39.21;;
42701;Laerm;28316;49.504;8.526;2022-11-20T11:49:21;35.58;26.91;38.95;;
42701;Laerm;28316;49.504;8.526;2022-11-20T11:52:20;35.64;26.91;39.58;;
42701;Laerm;28316;49.504;8.526;2022-11-20T11:54:56;35.58;23.90;39.34;;
42701;Laerm;28316;49.504;8.526;2022-11-20T11:57:54;35.59;23.90;39.21;;
42701;Laerm;28316;49.504;8.526;2022-11-20T12:00:23;35.59;23.55;39.46;;
42701;Laerm;28316;49.504;8.526;2022-11-20T12:03:14;35.57;26.91;39.34;;
42701;Laerm;28316;49.504;8.526;2022-11-20T12:06:09;35.58;23.90;39.08;;
42701;Laerm;28316;49.504;8.526;2022-11-20T12:08:44;35.60;23.90;39.34;;
42701;Laerm;28316;49.504;8.526;2022-11-20T12:14:19;35.55;23.90;39.34;;
42701;Laerm;28316;49.504;8.526;2022-11-20T12:16:50;35.59;26.91;39.08;;
42701;Laerm;28316;49.504;8.526;2022-11-20T12:19:18;35.57;23.90;39.21;;
42701;Laerm;28316;49.504;8.526;2022-11-20T12:22:31;35.61;5.00;39.08;;
42701;Laerm;28316;49.504;8.526;2022-11-20T12:25:20;35.58;23.90;39.46;;
42701;Laerm;28316;49.504;8.526;2022-11-20T12:36:44;35.58;5.00;39.08;;
42701;Laerm;28316;49.504;8.526;2022-11-20T12:42:55;35.58;23.90;39.21;;
42701;Laerm;28316;49.504;8.526;2022-11-20T12:46:07;35.57;26.91;39.21;;
42701;Laerm;28316;49.504;8.526;2022-11-20T12:52:05;35.53;23.90;39.08;;
42701;Laerm;28316;49.504;8.526;2022-11-20T12:58:03;35.57;23.90;39.34;;
42701;Laerm;28316;49.504;8.526;2022-11-20T13:00:31;35.57;23.90;39.08;;
42701;Laerm;28316;49.504;8.526;2022-11-20T13:03:44;35.56;23.90;39.21;;
42701;Laerm;28316;49.504;8.526;2022-11-20T13:06:17;35.54;23.90;39.21;;
42701;Laerm;28316;49.504;8.526;2022-11-20T13:08:52;35.53;23.90;39.21;;
42701;Laerm;28316;49.504;8.526;2022-11-20T13:19:54;35.55;23.90;39.21;;
42701;Laerm;28316;49.504;8.526;2022-11-20T13:22:48;35.53;23.90;39.23;;
42701;Laerm;28316;49.504;8.526;2022-11-20T13:29:20;35.55;23.90;39.21;;
42701;Laerm;28316;49.504;8.526;2022-11-20T13:32:20;35.57;5.00;38.95;;
42701;Laerm;28316;49.504;8.526;2022-11-20T13:35:05;35.85;23.90;39.08;;
42701;Laerm;28316;49.504;8.526;2022-11-20T13:37:38;36.04;23.90;39.34;;
42701;Laerm;28316;49.504;8.526;2022-11-20T13:40:12;35.64;23.90;39.21;;
42701;Laerm;28316;49.504;8.526;2022-11-20T13:43:36;35.72;5.00;38.95;;
42701;Laerm;28316;49.504;8.526;2022-11-20T13:46:20;36.03;26.91;39.08;;
42701;Laerm;28316;49.504;8.526;2022-11-20T13:48:51;36.25;30.89;39.21;;
42701;Laerm;28316;49.504;8.526;2022-11-20T13:58:24;36.90;32.35;39.92;;
42701;Laerm;28316;49.504;8.526;2022-11-20T14:01:41;36.94;32.93;39.58;;
42701;Laerm;28316;49.504;8.526;2022-11-20T14:05:03;37.53;34.31;40.89;;
42701;Laerm;28316;49.504;8.526;2022-11-20T14:07:51;41.15;37.32;42.93;;
42701;Laerm;28316;49.504;8.526;2022-11-20T14:10:40;42.26;41.06;43.39;;
42701;Laerm;28316;49.504;8.526;2022-11-20T14:13:55;42.33;40.71;43.44;;
42701;Laerm;28316;49.504;8.526;2022-11-20T14:16:40;42.41;40.98;53.91;;
42701;Laerm;28316;49.504;8.526;2022-11-20T14:19:51;42.35;40.89;50.89;;
42701;Laerm;28316;49.504;8.526;2022-11-20T14:22:30;42.26;40.71;53.79;;
42701;Laerm;28316;49.504;8.526;2022-11-20T14:27:53;42.48;40.43;59.58;;
42701;Laerm;28316;49.504;8.526;2022-11-20T14:30:39;42.17;40.53;47.18;;
42701;Laerm;28316;49.504;8.526;2022-11-20T14:33:15;42.17;40.62;50.80;;
42701;Laerm;28316;49.504;8.526;2022-11-20T14:35:57;42.12;40.71;48.61;;
42701;Laerm;28316;49.504;8.526;2022-11-20T14:38:32;42.24;40.62;53.81;;
42701;Laerm;28316;49.504;8.526;2022-11-20T14:43:59;42.10;40.71;45.97;;
42701;Laerm;28316;49.504;8.526;2022-11-20T14:46:51;42.07;40.62;43.29;;
42701;Laerm;28316;49.504;8.526;2022-11-20T14:49:21;42.09;40.43;44.15;;
42701;Laerm;28316;49.504;8.526;2022-11-20T14:55:42;42.11;40.79;48.34;;
42701;Laerm;28316;49.504;8.526;2022-11-20T14:58:39;42.12;40.89;43.49;;
42701;Laerm;28316;49.504;8.526;2022-11-20T15:01:28;42.12;40.71;44.20;;
42701;Laerm;28316;49.504;8.526;2022-11-20T15:04:12;42.15;40.89;46.20;;
42701;Laerm;28316;49.504;8.526;2022-11-20T15:07:31;42.11;40.33;43.54;;
42701;Laerm;28316;49.504;8.526;2022-11-20T15:10:28;42.17;40.62;47.63;;
42701;Laerm;28316;49.504;8.526;2022-11-20T15:16:00;42.12;40.71;46.40;;
42701;Laerm;28316;49.504;8.526;2022-11-20T15:19:23;42.11;40.53;43.34;;
42701;Laerm;28316;49.504;8.526;2022-11-20T15:22:38;42.12;40.88;43.39;;
42701;Laerm;28316;49.504;8.526;2022-11-20T15:26:04;42.13;40.53;43.39;;
42701;Laerm;28316;49.504;8.526;2022-11-20T15:29:01;42.14;40.80;43.19;;
42701;Laerm;28316;49.504;8.526;2022-11-20T15:31:42;42.14;40.71;43.24;;
42701;Laerm;28316;49.504;8.526;2022-11-20T15:34:34;42.15;40.33;43.44;;
42701;Laerm;28316;49.504;8.526;2022-11-20T15:37:08;42.14;40.71;43.34;;
42701;Laerm;28316;49.504;8.526;2022-11-20T15:39:34;42.14;40.71;43.24;;
42701;Laerm;28316;49.504;8.526;2022-11-20T15:42:27;42.14;40.33;43.37;;
42701;Laerm;28316;49.504;8.526;2022-11-20T15:45:17;42.16;40.71;43.39;;
42701;Laerm;28316;49.504;8.526;2022-11-20T15:47:46;42.15;40.80;43.29;;
42701;Laerm;28316;49.504;8.526;2022-11-20T15:50:18;42.16;40.62;43.39;;
42701;Laerm;28316;49.504;8.526;2022-11-20T15:52:46;42.15;40.98;43.39;;
42701;Laerm;28316;49.504;8.526;2022-11-20T15:55:18;42.16;40.80;43.29;;
42701;Laerm;28316;49.504;8.526;2022-11-20T15:58:08;42.16;40.71;43.63;;